createdAt,value
2022-08-25T00:01:33.625Z,6.03
2022-08-25T00:04:07.226Z,4.57
2022-08-25T00:06:34.188Z,6.95
2022-08-25T00:09:00.875Z,4.80
2022-08-25T00:11:30.495Z,7.22
2022-08-25T00:14:01.032Z,5.72
2022-08-25T00:16:29.623Z,6.55
2022-08-25T00:19:00.504Z,4.45
2022-08-25T00:21:28.098Z,5.85
2022-08-25T00:26:21.341Z,7.25
2022-08-25T00:28:48.094Z,4.40
2022-08-25T00:31:18.219Z,5.72
2022-08-25T00:33:46.125Z,5.43
2022-08-25T00:36:13.038Z,6.68
2022-08-25T00:38:40.614Z,5.28
2022-08-25T00:43:46.030Z,5.70
2022-08-25T00:46:15.233Z,5.65
2022-08-25T00:48:42.434Z,6.80
2022-08-25T00:51:13.290Z,5.10
2022-08-25T00:53:40.646Z,6.22
2022-08-25T00:56:07.893Z,5.90
2022-08-25T00:58:34.983Z,7.13
2022-08-25T01:01:01.921Z,7.93
2022-08-25T01:03:33.171Z,5.35
2022-08-25T01:06:05.233Z,6.35
2022-08-25T01:08:33.186Z,5.20
2022-08-25T01:11:03.446Z,5.72
2022-08-25T01:13:34.862Z,5.55
2022-08-25T01:16:01.777Z,5.65
2022-08-25T01:18:28.705Z,5.97
2022-08-25T01:20:56.820Z,5.90
2022-08-25T01:23:26.227Z,6.20
2022-08-25T01:26:16.280Z,8.07
2022-08-25T01:29:04.111Z,7.57
2022-08-25T01:31:31.483Z,8.00
2022-08-25T01:33:58.613Z,5.50
2022-08-25T01:36:26.944Z,5.78
2022-08-25T01:38:54.216Z,5.85
2022-08-25T01:41:29.459Z,5.88
2022-08-25T01:43:56.403Z,6.20
2022-08-25T01:46:23.141Z,6.22
2022-08-25T01:48:50.011Z,6.97
2022-08-25T01:51:16.959Z,6.75
2022-08-25T01:53:44.205Z,6.13
2022-08-25T01:56:13.809Z,8.57
2022-08-25T01:58:44.003Z,5.45
2022-08-25T02:01:16.056Z,6.57
2022-08-25T02:03:46.363Z,6.18
2022-08-25T02:06:18.704Z,6.82
2022-08-25T02:08:45.285Z,7.43
2022-08-25T02:11:13.802Z,9.85
2022-08-25T02:13:41.988Z,9.50
2022-08-25T02:16:10.532Z,7.60
2022-08-25T02:18:37.176Z,9.32
2022-08-25T02:21:03.889Z,10.90
2022-08-25T02:23:30.447Z,7.88
2022-08-25T02:25:57.357Z,9.13
2022-08-25T02:28:24.520Z,7.32
2022-08-25T02:30:52.894Z,9.57
2022-08-25T02:33:25.344Z,9.55
2022-08-25T02:35:51.934Z,7.97
2022-08-25T02:38:18.580Z,8.27
2022-08-25T02:40:45.206Z,7.10
2022-08-25T02:43:11.845Z,8.10
2022-08-25T02:45:39.047Z,9.77
2022-08-25T02:48:05.849Z,11.25
2022-08-25T02:50:33.280Z,7.95
2022-08-25T02:52:59.957Z,8.07
2022-08-25T02:55:26.621Z,7.13
2022-08-25T02:57:53.259Z,7.43
2022-08-25T03:00:20.510Z,9.20
2022-08-25T03:02:47.245Z,7.68
2022-08-25T03:05:14.884Z,9.15
2022-08-25T03:07:41.955Z,8.35
2022-08-25T03:10:12.961Z,7.63
2022-08-25T03:12:41.599Z,7.07
2022-08-25T03:15:16.701Z,7.55
2022-08-25T03:17:49.473Z,9.63
2022-08-25T03:20:17.599Z,7.68
2022-08-25T03:22:44.738Z,9.18
2022-08-25T03:25:30.203Z,8.05
2022-08-25T03:27:56.832Z,7.55
2022-08-25T03:30:23.838Z,6.75
2022-08-25T03:32:50.389Z,8.85
2022-08-25T03:35:16.973Z,9.05
2022-08-25T03:37:43.570Z,7.10
2022-08-25T03:40:15.277Z,8.95
2022-08-25T03:42:45.523Z,8.55
2022-08-25T03:45:14.141Z,8.90
2022-08-25T03:47:41.055Z,8.32
2022-08-25T03:50:10.235Z,6.32
2022-08-25T03:52:41.788Z,9.57
2022-08-25T03:55:11.997Z,10.45
2022-08-25T03:57:38.827Z,11.00
2022-08-25T04:00:08.162Z,10.18
2022-08-25T04:02:39.756Z,6.38
2022-08-25T04:05:07.295Z,8.30
2022-08-25T04:07:33.876Z,11.00
2022-08-25T04:10:00.408Z,8.35
2022-08-25T04:12:27.025Z,8.60
2022-08-25T04:14:54.023Z,8.63
2022-08-25T04:17:20.653Z,8.27
2022-08-25T04:19:47.327Z,8.18
2022-08-25T04:22:13.884Z,6.85
2022-08-25T04:24:40.607Z,7.22
2022-08-25T04:27:07.191Z,8.32
2022-08-25T04:29:33.997Z,8.10
2022-08-25T04:32:00.929Z,7.07
2022-08-25T04:34:30.412Z,7.50
2022-08-25T04:37:02.828Z,7.20
2022-08-25T04:39:30.559Z,7.78
2022-08-25T04:46:50.446Z,7.80
2022-08-25T04:49:17.253Z,9.75
2022-08-25T04:51:44.387Z,11.35
2022-08-25T04:54:16.873Z,9.35
2022-08-25T04:56:43.933Z,8.63
2022-08-25T04:59:12.982Z,10.77
2022-08-25T05:01:40.460Z,8.32
2022-08-25T05:04:14.706Z,11.73
2022-08-25T05:06:54.868Z,9.23
2022-08-25T05:09:21.818Z,13.23
2022-08-25T05:11:48.679Z,8.15
2022-08-25T05:14:18.151Z,8.82
2022-08-25T05:16:45.318Z,7.07
2022-08-25T05:19:11.887Z,8.52
2022-08-25T05:21:38.538Z,9.45
2022-08-25T05:24:05.757Z,11.43
2022-08-25T05:26:33.516Z,8.88
2022-08-25T05:29:04.332Z,11.63
2022-08-25T05:31:32.666Z,11.73
2022-08-25T05:34:00.012Z,10.07
2022-08-25T05:36:27.981Z,8.02
2022-08-25T05:38:54.629Z,8.52
2022-08-25T05:41:26.318Z,8.93
2022-08-25T05:43:52.909Z,10.77
2022-08-25T05:46:21.102Z,15.27
2022-08-25T05:48:48.622Z,13.57
2022-08-25T05:51:15.424Z,9.90
2022-08-25T05:53:44.082Z,11.63
2022-08-25T05:56:11.207Z,11.38
2022-08-25T05:58:37.936Z,9.88
2022-08-25T06:01:23.273Z,10.45
2022-08-25T06:03:53.314Z,11.40
2022-08-25T06:06:22.659Z,11.35
2022-08-25T06:08:49.444Z,14.40
2022-08-25T06:11:16.499Z,10.95
2022-08-25T06:13:43.366Z,10.00
2022-08-25T06:16:10.088Z,9.63
2022-08-25T06:18:36.669Z,10.32
2022-08-25T06:21:14.180Z,9.25
2022-08-25T06:23:40.924Z,10.85
2022-08-25T06:26:10.606Z,8.60
2022-08-25T06:28:40.499Z,10.57
2022-08-25T06:31:07.182Z,11.70
2022-08-25T06:33:34.027Z,10.85
2022-08-25T06:36:01.049Z,9.50
2022-08-25T06:38:27.945Z,9.38
2022-08-25T06:40:54.480Z,8.77
2022-08-25T06:43:21.833Z,12.32
2022-08-25T06:45:48.667Z,13.25
2022-08-25T06:48:15.905Z,9.98
2022-08-25T06:50:43.326Z,8.52
2022-08-25T06:53:10.344Z,8.70
2022-08-25T06:55:36.896Z,9.20
2022-08-25T06:58:05.446Z,9.32
2022-08-25T07:00:32.816Z,11.68
2022-08-25T07:03:01.116Z,9.55
2022-08-25T07:05:40.839Z,9.02
2022-08-25T07:08:11.786Z,11.55
2022-08-25T07:10:38.759Z,8.80
2022-08-25T07:13:05.381Z,9.60
2022-08-25T07:15:32.040Z,9.50
2022-08-25T07:17:58.701Z,8.63
2022-08-25T07:22:57.808Z,10.95
2022-08-25T07:25:24.712Z,9.88
2022-08-25T07:27:53.805Z,9.07
2022-08-25T07:30:23.454Z,12.23
2022-08-25T07:32:54.991Z,9.75
2022-08-25T07:35:24.597Z,9.60
2022-08-25T07:37:58.179Z,9.48
2022-08-25T07:40:26.203Z,10.75
2022-08-25T07:42:55.092Z,9.23
2022-08-25T07:45:30.059Z,7.93
2022-08-25T07:48:03.187Z,8.38
2022-08-25T07:50:31.266Z,10.70
2022-08-25T07:52:58.562Z,7.47
2022-08-25T07:55:27.129Z,7.45
2022-08-25T07:58:02.540Z,9.55
2022-08-25T08:00:32.111Z,8.30
2022-08-25T08:03:00.476Z,7.25
2022-08-25T08:05:30.673Z,10.85
2022-08-25T08:07:57.688Z,11.40
2022-08-25T08:13:15.384Z,8.00
2022-08-25T08:15:45.132Z,8.32
2022-08-25T08:18:11.870Z,7.25
2022-08-25T08:23:10.771Z,9.70
2022-08-25T08:28:04.132Z,7.60
2022-08-25T08:30:34.262Z,10.70
2022-08-25T08:33:11.380Z,8.20
2022-08-25T08:35:40.026Z,8.07
2022-08-25T08:38:13.510Z,8.73
2022-08-25T08:41:09.148Z,6.72
2022-08-25T08:46:03.909Z,8.07
2022-08-25T08:49:02.111Z,8.02
2022-08-25T08:51:48.575Z,9.73
2022-08-25T08:56:52.827Z,7.95
2022-08-25T08:59:28.779Z,7.32
2022-08-25T09:02:00.508Z,8.30
2022-08-25T09:04:47.511Z,8.38
2022-08-25T09:07:18.006Z,9.82
2022-08-25T09:09:47.788Z,14.57
2022-08-25T09:12:27.722Z,8.18
2022-08-25T09:15:19.313Z,8.25
2022-08-25T09:18:19.779Z,6.90
2022-08-25T09:21:09.260Z,7.13
2022-08-25T09:23:46.716Z,10.18
2022-08-25T09:26:32.428Z,9.57
2022-08-25T09:29:16.534Z,9.02
2022-08-25T09:31:43.773Z,7.80
2022-08-25T09:34:32.210Z,9.15
2022-08-25T09:36:59.901Z,6.55
2022-08-25T09:39:27.582Z,7.28
2022-08-25T09:41:57.109Z,9.50
2022-08-25T09:44:41.332Z,6.63
2022-08-25T09:47:29.977Z,7.47
2022-08-25T09:50:01.052Z,7.75
2022-08-25T09:52:38.608Z,7.57
2022-08-25T09:55:08.053Z,10.02
2022-08-25T09:57:56.747Z,6.50
2022-08-25T10:00:33.706Z,13.25
2022-08-25T10:03:09.210Z,7.65
2022-08-25T10:05:57.502Z,7.40
2022-08-25T10:08:31.337Z,6.88
2022-08-25T10:10:59.632Z,6.55
2022-08-25T10:13:36.532Z,6.15
2022-08-25T10:16:20.003Z,8.70
2022-08-25T10:19:04.862Z,6.55
2022-08-25T10:21:31.929Z,7.30
2022-08-25T10:24:00.879Z,8.13
2022-08-25T10:26:56.856Z,6.25
2022-08-25T10:29:31.139Z,7.30
2022-08-25T10:32:12.223Z,6.47
2022-08-25T10:34:59.490Z,11.23
2022-08-25T10:37:38.033Z,6.13
2022-08-25T10:40:16.696Z,8.00
2022-08-25T10:43:02.744Z,5.80
2022-08-25T10:45:45.404Z,6.30
2022-08-25T10:48:50.390Z,5.57
2022-08-25T10:51:43.096Z,6.90
2022-08-25T10:54:24.620Z,6.38
2022-08-25T10:57:13.595Z,7.63
2022-08-25T10:59:51.466Z,8.43
2022-08-25T11:02:23.916Z,5.63
2022-08-25T11:05:00.251Z,8.35
2022-08-25T11:07:48.424Z,5.65
2022-08-25T11:10:16.084Z,4.90
2022-08-25T11:12:46.323Z,5.93
2022-08-25T11:15:23.107Z,5.97
2022-08-25T11:17:59.222Z,9.35
2022-08-25T11:20:34.046Z,9.15
2022-08-25T11:23:20.423Z,6.75
2022-08-25T11:29:11.408Z,5.53
2022-08-25T11:31:42.480Z,5.10
2022-08-25T11:34:11.285Z,6.15
2022-08-25T11:36:40.700Z,4.85
2022-08-25T11:39:31.211Z,7.35
2022-08-25T11:42:16.302Z,10.25
2022-08-25T11:44:55.627Z,5.53
2022-08-25T11:47:22.135Z,4.95
2022-08-25T11:50:04.303Z,8.00
2022-08-25T11:52:34.842Z,5.78
2022-08-25T11:55:37.265Z,6.15
2022-08-25T11:58:28.587Z,6.35
2022-08-25T12:00:59.555Z,6.32
2022-08-25T12:03:31.917Z,6.75
2022-08-25T12:06:15.274Z,6.72
2022-08-25T12:09:13.305Z,5.75
2022-08-25T12:11:51.407Z,7.15
2022-08-25T12:14:34.323Z,6.32
2022-08-25T12:17:27.118Z,5.40
2022-08-25T12:19:56.405Z,4.30
2022-08-25T12:22:23.032Z,5.90
2022-08-25T12:25:23.773Z,4.75
2022-08-25T12:28:06.865Z,6.47
2022-08-25T12:30:54.378Z,5.75
2022-08-25T12:34:08.528Z,4.97
2022-08-25T12:42:05.577Z,5.38
2022-08-25T12:44:40.475Z,6.13
2022-08-25T12:47:13.747Z,4.55
2022-08-25T12:49:40.599Z,4.03
2022-08-25T12:52:18.635Z,4.40
2022-08-25T12:54:54.722Z,5.95
2022-08-25T12:57:25.050Z,5.63
2022-08-25T12:59:57.796Z,5.28
2022-08-25T13:02:52.746Z,5.65
2022-08-25T13:05:56.064Z,9.70
2022-08-25T13:08:46.662Z,5.07
2022-08-25T13:11:43.162Z,4.53
2022-08-25T13:14:33.565Z,5.35
2022-08-25T13:17:05.635Z,5.93
2022-08-25T13:19:34.584Z,4.22
2022-08-25T13:22:16.058Z,4.53
2022-08-25T13:24:44.844Z,4.45
2022-08-25T13:27:22.885Z,6.55
2022-08-25T13:29:59.776Z,4.28
2022-08-25T13:32:35.485Z,4.47
2022-08-25T13:35:17.572Z,4.78
2022-08-25T13:37:46.426Z,5.20
2022-08-25T13:40:26.314Z,5.82
2022-08-25T13:43:05.567Z,4.63
2022-08-25T13:45:40.998Z,8.23
2022-08-25T13:48:20.895Z,5.95
2022-08-25T13:50:52.042Z,3.92
2022-08-25T13:53:25.178Z,4.57
2022-08-25T13:55:53.586Z,4.35
2022-08-25T13:58:39.059Z,5.18
2022-08-25T14:01:23.142Z,6.63
2022-08-25T14:04:32.364Z,5.03
2022-08-25T14:07:14.108Z,4.63
2022-08-25T14:09:47.071Z,4.18
2022-08-25T14:15:02.570Z,5.32
2022-08-25T14:17:39.478Z,6.32
2022-08-25T14:20:28.658Z,5.00
2022-08-25T14:22:59.670Z,5.10
2022-08-25T14:25:30.455Z,5.40
2022-08-25T14:28:09.104Z,5.68
2022-08-25T14:30:43.491Z,4.20
2022-08-25T14:33:14.104Z,6.22
2022-08-25T14:35:42.241Z,6.30
2022-08-25T14:38:11.219Z,4.30
2022-08-25T14:40:38.593Z,4.80
2022-08-25T14:43:09.546Z,5.47
2022-08-25T14:45:40.430Z,4.85
2022-08-25T14:48:15.397Z,5.03
2022-08-25T14:50:42.264Z,4.72
2022-08-25T14:53:10.663Z,4.35
2022-08-25T14:55:38.790Z,4.10
2022-08-25T14:58:06.762Z,4.35
2022-08-25T15:00:36.256Z,4.63
2022-08-25T15:03:03.839Z,4.43
2022-08-25T15:05:31.811Z,5.32
2022-08-25T15:08:17.193Z,6.40
2022-08-25T15:10:44.268Z,4.15
2022-08-25T15:13:10.978Z,4.60
2022-08-25T15:15:52.530Z,4.03
2022-08-25T15:18:20.592Z,5.15
2022-08-25T15:20:49.892Z,4.68
2022-08-25T15:23:18.526Z,4.55
2022-08-25T15:25:47.515Z,10.18
2022-08-25T15:28:17.408Z,5.70
2022-08-25T15:30:45.661Z,6.15
2022-08-25T15:33:13.984Z,6.03
2022-08-25T15:35:41.360Z,4.30
2022-08-25T15:38:08.360Z,3.85
2022-08-25T15:40:37.634Z,5.43
2022-08-25T15:43:05.640Z,6.72
2022-08-25T15:45:35.918Z,6.35
2022-08-25T15:48:03.509Z,5.32
2022-08-25T15:50:30.047Z,4.13
2022-08-25T15:52:56.695Z,4.38
2022-08-25T15:55:23.533Z,3.80
2022-08-25T15:57:50.255Z,6.82
2022-08-25T16:00:18.114Z,4.97
2022-08-25T16:02:45.528Z,4.30
2022-08-25T16:05:16.098Z,4.80
2022-08-25T16:07:43.112Z,4.22
2022-08-25T16:10:12.542Z,4.20
2022-08-25T16:12:40.040Z,4.25
2022-08-25T16:15:10.080Z,7.68
2022-08-25T16:17:40.780Z,5.38
2022-08-25T16:20:13.646Z,5.28
2022-08-25T16:22:41.457Z,5.00
2022-08-25T16:25:08.504Z,4.60
2022-08-25T16:27:38.550Z,4.45
2022-08-25T16:30:07.999Z,5.63
2022-08-25T16:32:34.719Z,5.10
2022-08-25T16:35:02.562Z,5.05
2022-08-25T16:37:29.804Z,6.25
2022-08-25T16:39:57.080Z,8.45
2022-08-25T16:42:24.224Z,6.90
2022-08-25T16:44:53.800Z,4.80
2022-08-25T16:47:25.010Z,6.80
2022-08-25T16:49:53.483Z,5.25
2022-08-25T16:52:39.153Z,6.07
2022-08-25T16:55:13.643Z,4.20
2022-08-25T16:57:43.699Z,4.18
2022-08-25T17:00:14.091Z,4.85
2022-08-25T17:02:41.903Z,5.93
2022-08-25T17:07:36.136Z,4.72
2022-08-25T17:10:07.290Z,4.78
2022-08-25T17:12:39.682Z,5.00
2022-08-25T17:15:07.582Z,3.92
2022-08-25T17:17:36.307Z,4.63
2022-08-25T17:20:04.902Z,4.22
2022-08-25T17:22:31.772Z,5.10
2022-08-25T17:25:00.889Z,7.70
2022-08-25T17:27:28.192Z,6.53
2022-08-25T17:29:55.886Z,4.75
2022-08-25T17:34:57.590Z,5.05
2022-08-25T17:37:24.506Z,4.55
2022-08-25T17:39:56.699Z,5.25
2022-08-25T17:42:31.339Z,5.85
2022-08-25T17:44:58.074Z,7.32
2022-08-25T17:47:25.239Z,4.20
2022-08-25T17:49:51.882Z,5.03
2022-08-25T17:52:21.503Z,5.15
2022-08-25T17:54:52.671Z,5.18
2022-08-25T17:57:19.653Z,4.57
2022-08-25T17:59:46.203Z,5.85
2022-08-25T18:02:12.894Z,5.72
2022-08-25T18:04:39.649Z,4.65
2022-08-25T18:09:33.600Z,6.53
2022-08-25T18:12:00.220Z,6.63
2022-08-25T18:14:27.275Z,4.57
2022-08-25T18:16:54.123Z,6.78
2022-08-25T18:19:21.115Z,8.20
2022-08-25T18:21:48.690Z,7.65
2022-08-25T18:24:15.284Z,8.25
2022-08-25T18:26:42.209Z,11.48
2022-08-25T18:29:12.132Z,11.05
2022-08-25T18:31:41.011Z,13.07
2022-08-25T18:34:11.113Z,29.83
2022-08-25T18:36:38.832Z,42.22
2022-08-25T18:39:25.469Z,23.63
2022-08-25T18:41:52.103Z,15.27
2022-08-25T18:44:19.012Z,12.43
2022-08-25T18:46:46.121Z,7.60
2022-08-25T18:49:15.811Z,9.25
2022-08-25T18:51:44.678Z,10.02
2022-08-25T18:54:22.793Z,11.27
2022-08-25T18:56:52.812Z,7.82
2022-08-25T18:59:20.005Z,7.78
2022-08-25T19:01:50.937Z,6.05
2022-08-25T19:04:18.041Z,15.93
2022-08-25T19:06:44.704Z,13.57
2022-08-25T19:09:11.620Z,9.85
2022-08-25T19:11:38.585Z,10.10
2022-08-25T19:16:41.117Z,8.80
2022-08-25T19:19:11.509Z,8.20
2022-08-25T19:21:38.664Z,9.57
2022-08-25T19:26:35.218Z,8.13
2022-08-25T19:29:04.619Z,6.78
2022-08-25T19:31:33.054Z,10.20
2022-08-25T19:34:00.960Z,6.13
2022-08-25T19:36:29.229Z,6.45
2022-08-25T19:38:58.573Z,6.93
2022-08-25T19:41:26.148Z,6.65
2022-08-25T19:43:56.577Z,5.97
2022-08-25T19:46:33.353Z,7.78
2022-08-25T19:49:34.860Z,7.38
2022-08-25T19:52:10.630Z,8.48
2022-08-25T19:54:45.740Z,7.15
2022-08-25T19:57:20.802Z,7.53
2022-08-25T19:59:55.821Z,7.90
2022-08-25T20:02:25.143Z,7.50
2022-08-25T20:04:59.255Z,8.30
2022-08-25T20:07:28.873Z,8.93
2022-08-25T20:09:55.930Z,5.65
2022-08-25T20:12:24.184Z,8.82
2022-08-25T20:14:52.163Z,6.88
2022-08-25T20:17:23.556Z,8.77
2022-08-25T20:19:52.471Z,7.55
2022-08-25T20:22:21.542Z,7.82
2022-08-25T20:24:56.210Z,6.20
2022-08-25T20:27:34.691Z,6.53
2022-08-25T20:30:02.580Z,7.25
2022-08-25T20:32:31.370Z,5.88
2022-08-25T20:34:58.134Z,6.05
2022-08-25T20:37:25.721Z,8.68
2022-08-25T20:39:53.084Z,7.68
2022-08-25T20:44:47.106Z,7.00
2022-08-25T20:47:14.978Z,8.75
2022-08-25T20:49:45.255Z,6.90
2022-08-25T20:52:13.581Z,9.70
2022-08-25T20:54:44.019Z,9.40
2022-08-25T20:57:17.707Z,9.95
2022-08-25T20:59:44.348Z,6.07
2022-08-25T21:02:11.199Z,8.48
2022-08-25T21:04:39.244Z,8.13
2022-08-25T21:07:15.526Z,9.27
2022-08-25T21:09:42.157Z,8.13
2022-08-25T21:12:09.460Z,8.18
2022-08-25T21:14:38.202Z,7.40
2022-08-25T21:17:05.294Z,7.57
2022-08-25T21:19:32.380Z,8.38
2022-08-25T21:22:00.271Z,7.82
2022-08-25T21:24:28.057Z,10.35
2022-08-25T21:26:56.872Z,7.93
2022-08-25T21:29:25.963Z,9.70
2022-08-25T21:31:57.793Z,6.35
2022-08-25T21:34:24.833Z,7.82
2022-08-25T21:36:57.887Z,13.25
2022-08-25T21:39:29.678Z,8.93
2022-08-25T21:41:59.880Z,8.20
2022-08-25T21:44:26.921Z,8.13
2022-08-25T21:46:54.199Z,7.80
2022-08-25T21:49:22.451Z,7.18
2022-08-25T21:51:59.314Z,8.32
2022-08-25T21:54:28.714Z,7.45
2022-08-25T21:57:00.846Z,7.22
2022-08-25T21:59:31.112Z,8.13
2022-08-25T22:01:59.674Z,6.38
2022-08-25T22:04:27.397Z,7.50
2022-08-25T22:06:54.285Z,6.63
2022-08-25T22:09:21.070Z,8.23
2022-08-25T22:11:48.056Z,9.02
2022-08-25T22:14:15.237Z,6.90
2022-08-25T22:16:42.631Z,8.35
2022-08-25T22:19:12.517Z,7.03
2022-08-25T22:21:40.372Z,8.95
2022-08-25T22:24:07.056Z,6.53
2022-08-25T22:26:34.479Z,8.52
2022-08-25T22:29:01.409Z,7.30
2022-08-25T22:31:28.780Z,10.45
2022-08-25T22:33:57.750Z,9.45
2022-08-25T22:39:02.113Z,8.25
2022-08-25T22:41:30.161Z,10.07
2022-08-25T22:43:57.047Z,10.73
2022-08-25T22:48:52.006Z,8.88
2022-08-25T22:51:21.945Z,8.40
2022-08-25T22:53:48.847Z,8.00
2022-08-25T22:56:17.524Z,9.02
2022-08-25T22:58:51.808Z,11.27
2022-08-25T23:01:19.888Z,6.82
2022-08-25T23:03:47.643Z,8.25
2022-08-25T23:06:20.762Z,7.20
2022-08-25T23:08:53.507Z,10.10
2022-08-25T23:11:21.299Z,8.15
2022-08-25T23:13:47.870Z,8.32
2022-08-25T23:16:15.370Z,10.15
2022-08-25T23:18:43.919Z,10.68
2022-08-25T23:21:35.195Z,9.15
2022-08-25T23:24:05.301Z,8.73
2022-08-25T23:26:33.355Z,8.75
2022-08-25T23:29:00.806Z,9.18
2022-08-25T23:31:30.169Z,9.45
2022-08-25T23:33:58.859Z,7.78
2022-08-25T23:36:25.592Z,9.65
2022-08-25T23:38:52.492Z,8.50
2022-08-25T23:41:23.101Z,7.97
2022-08-25T23:43:50.028Z,10.90
2022-08-25T23:46:19.347Z,9.07
2022-08-25T23:48:48.180Z,9.90
2022-08-25T23:51:27.663Z,10.57
2022-08-25T23:53:55.782Z,9.38
2022-08-25T23:56:23.221Z,11.88
2022-08-25T23:58:51.258Z,10.13
